Saint Aubin/Jersey Island, United Kingdom
Current Conditions -  °F | °C
As of 4:50 AM on Friday 31 Oct 2014 (Local Time) from EGJB Reporting Station
Clear Clear  
Wind Chill: 59°   Ceiling: Unl
Heat Index: 59°   Visibility: 5mi
Dew Point: 59°   Wind: 14mph
Humidity: 100%   Direction: 150°SSE
Pressure: 30.03"   Gusts: NA
Location:  49.25°N, 2.75°W
Report Text: EGJB 310350Z 15012KT 8000 NSC 15/15 Q1017
Loading
Personal Weather Stations






























Interactive Weather Map
Tropical Storm Tracking
New forecast layout! Learn more

10-Day Weather Forecast

Advertisements
Track Severe Weather on mobile